Time;durP1;ratioP1;P1;durP2;ratioP2;P2;SDS_P1;SDS_P2;PMS_P1;PMS_P2;Temp;Humidity;BMP_temperature;BMP_pressure;BME280_temperature;BME280_humidity;BME280_pressure;Samples;Min_cycle;Max_cycle;Signal;HPM_P1;HPM_P2
2022/11/21 00:00:44;;;;;;;5.57;3.00;;;;;;;4.00;61.56;92035.13;2071252;69;20137;-78
2022/11/21 00:03:10;;;;;;;5.20;2.90;;;;;;;3.88;61.66;92028.66;2067392;69;20227;-77
2022/11/21 00:05:43;;;;;;;5.10;3.00;;;;;;;4.00;60.36;92030.31;2071261;69;20334;-78
2022/11/21 00:08:10;;;;;;;4.50;2.95;;;;;;;3.93;60.97;92024.84;2070976;69;20643;-77
2022/11/21 00:10:37;;;;;;;3.72;2.30;;;;;;;3.77;60.86;92008.44;2070071;69;20157;-77
2022/11/21 00:13:03;;;;;;;7.00;2.60;;;;;;;3.81;61.02;92005.22;2070360;69;20148;-76
2022/11/21 00:15:28;;;;;;;4.05;2.17;;;;;;;3.82;60.27;92021.34;2071094;69;20158;-76
2022/11/21 00:17:54;;;;;;;3.65;2.17;;;;;;;3.86;60.41;92020.91;2070991;69;20154;-77
2022/11/21 00:20:20;;;;;;;2.97;2.13;;;;;;;3.86;60.94;92023.69;2070931;69;20128;-76
2022/11/21 00:22:47;;;;;;;9.40;2.70;;;;;;;3.65;61.41;92024.22;2067581;69;20278;-76
2022/11/21 00:25:13;;;;;;;7.75;2.67;;;;;;;3.62;61.64;92033.75;2070489;69;20559;-76
2022/11/21 00:27:40;;;;;;;6.07;2.50;;;;;;;3.78;61.77;92034.22;2071333;69;20243;-76
2022/11/21 00:30:08;;;;;;;6.53;2.20;;;;;;;3.86;61.17;92036.88;2071438;69;20164;-76
2022/11/21 00:32:33;;;;;;;6.80;2.50;;;;;;;3.83;61.85;92042.28;2071564;69;20148;-76
2022/11/21 00:34:59;;;;;;;5.35;2.70;;;;;;;3.64;62.08;92042.25;2071600;69;20147;-77
2022/11/21 00:37:24;;;;;;;4.15;2.40;;;;;;;3.85;61.33;92049.31;2071353;69;20228;-76
2022/11/21 00:39:50;;;;;;;3.83;2.20;;;;;;;3.90;62.20;92043.47;2067988;69;20147;-76
2022/11/21 00:42:15;;;;;;;3.83;2.35;;;;;;;3.99;61.88;92039.97;2071430;69;20589;-76
2022/11/21 00:44:41;;;;;;;4.72;2.35;;;;;;;4.02;61.61;92032.50;2068034;69;20136;-77
2022/11/21 00:47:07;;;;;;;3.92;2.08;;;;;;;4.05;61.80;92036.91;2071432;69;20703;-77
2022/11/21 00:49:33;;;;;;;3.95;1.83;;;;;;;4.06;61.59;92038.34;2071557;69;20183;-77
2022/11/21 00:51:59;;;;;;;2.83;1.70;;;;;;;4.08;61.70;92042.03;2068134;69;20150;-77
2022/11/21 00:54:24;;;;;;;3.70;1.80;;;;;;;4.10;61.62;92037.94;2068119;69;20239;-77
2022/11/21 00:56:50;;;;;;;5.25;1.77;;;;;;;4.13;61.88;92033.97;2068135;69;20270;-77
2022/11/21 00:59:16;;;;;;;4.22;2.15;;;;;;;4.19;61.38;92037.94;2071333;69;20256;-76
2022/11/21 01:01:41;;;;;;;3.88;1.80;;;;;;;4.17;62.04;92037.03;2071410;69;20220;-77
2022/11/21 01:04:07;;;;;;;2.65;1.40;;;;;;;4.18;62.69;92044.84;2071546;69;20231;-76
2022/11/21 01:06:32;;;;;;;3.85;1.60;;;;;;;4.27;62.51;92057.31;2071368;69;20296;-76
2022/11/21 01:08:59;;;;;;;3.45;2.10;;;;;;;3.89;63.29;92052.41;2071548;69;20171;-75
2022/11/21 01:11:25;;;;;;;5.30;2.17;;;;;;;3.86;63.45;92059.16;2071443;69;20557;-76
2022/11/21 01:13:53;;;;;;;4.63;2.20;;;;;;;3.82;63.71;92077.00;2068122;69;20205;-76
2022/11/21 01:16:22;;;;;;;5.38;1.90;;;;;;;3.61;64.37;92064.94;2071082;69;20231;-76
2022/11/21 01:18:48;;;;;;;2.17;1.60;;;;;;;3.41;66.49;92072.50;2067800;69;20223;-76
2022/11/21 01:21:22;;;;;;;2.35;0.70;;;;;;;3.67;68.10;92070.97;2071285;69;20151;-77
2022/11/21 01:23:56;;;;;;;1.33;0.70;;;;;;;3.80;68.27;92065.75;2066864;69;20191;-76
2022/11/21 01:26:24;;;;;;;0.82;0.70;;;;;;;3.87;68.33;92061.34;2065181;69;20700;-75
2022/11/21 01:28:50;;;;;;;0.80;0.65;;;;;;;4.07;68.36;92059.31;2067039;69;20306;-76
2022/11/21 01:31:29;;;;;;;1.02;0.80;;;;;;;4.13;68.61;92064.63;2067994;69;20152;-77
2022/11/21 01:33:57;;;;;;;2.00;0.70;;;;;;;4.13;68.26;92070.94;2068631;69;20491;-76
2022/11/21 01:36:28;;;;;;;1.33;0.70;;;;;;;4.03;69.52;92062.56;2068435;69;20152;-76
2022/11/21 01:38:57;;;;;;;1.50;0.90;;;;;;;3.78;71.46;92065.56;2068042;69;20212;-76
2022/11/21 01:41:27;;;;;;;1.00;0.75;;;;;;;3.66;71.34;92061.88;2067870;69;20144;-76
2022/11/21 01:43:53;;;;;;;1.58;0.90;;;;;;;3.35;73.74;92058.13;2068236;69;20152;-76
2022/11/21 01:46:20;;;;;;;1.00;0.70;;;;;;;3.49;73.81;92059.19;2068050;69;20148;-76
2022/11/21 01:49:03;;;;;;;1.15;0.80;;;;;;;3.71;72.24;92049.75;2068210;69;20179;-77
2022/11/21 01:51:47;;;;;;;1.30;0.80;;;;;;;3.85;72.23;92036.16;2068163;69;20176;-76
2022/11/21 01:54:28;;;;;;;0.98;0.85;;;;;;;3.90;71.17;92034.41;2068024;69;20199;-76
2022/11/21 01:57:00;;;;;;;2.15;0.80;;;;;;;3.88;71.17;92043.31;2068053;69;20239;-76
2022/11/21 01:59:33;;;;;;;1.77;0.82;;;;;;;3.88;72.04;92046.09;2067934;69;20149;-77
2022/11/21 02:02:02;;;;;;;1.08;0.80;;;;;;;3.92;70.95;92049.19;2068014;69;20573;-76
2022/11/21 02:04:30;;;;;;;0.98;0.63;;;;;;;3.81;71.99;92033.78;2068083;69;20687;-76
2022/11/21 02:07:00;;;;;;;0.90;0.80;;;;;;;3.76;73.15;92020.16;2067826;69;20136;-76
2022/11/21 02:09:28;;;;;;;1.42;0.80;;;;;;;3.73;72.34;92019.25;2067985;69;20260;-76
2022/11/21 02:12:05;;;;;;;0.95;0.60;;;;;;;3.42;73.35;92018.31;2067936;69;20140;-76
2022/11/21 02:14:33;;;;;;;1.95;0.75;;;;;;;2.82;77.57;92023.47;2067977;69;20263;-76
2022/11/21 02:17:03;;;;;;;1.92;1.05;;;;;;;3.10;76.90;92016.56;2067802;69;20153;-76
2022/11/21 02:19:49;;;;;;;1.33;0.77;;;;;;;3.37;74.69;92027.66;2067841;69;20246;-76
2022/11/21 02:22:26;;;;;;;1.42;0.77;;;;;;;3.45;74.08;92029.00;2067928;69;20145;-75
2022/11/21 02:25:01;;;;;;;2.03;0.70;;;;;;;3.31;74.44;92022.38;2067316;69;20152;-75
2022/11/21 02:27:27;;;;;;;1.35;0.65;;;;;;;3.28;74.48;92015.19;2064120;69;20267;-76
2022/11/21 02:29:53;;;;;;;0.85;0.68;;;;;;;3.49;73.44;92015.41;2064572;69;20133;-76
2022/11/21 02:32:21;;;;;;;3.03;0.98;;;;;;;3.56;73.42;92014.53;2063790;69;20575;-77
2022/11/21 02:34:48;;;;;;;2.03;0.98;;;;;;;3.59;73.64;92009.84;2063890;69;20164;-77
2022/11/21 02:37:16;;;;;;;0.88;0.77;;;;;;;3.21;74.99;92016.06;2064504;69;20125;-77
2022/11/21 02:39:43;;;;;;;1.70;0.80;;;;;;;3.27;75.24;92006.09;2064275;69;20555;-77
2022/11/21 02:42:26;;;;;;;0.75;0.60;;;;;;;3.41;74.62;91986.97;2064108;69;20632;-76
2022/11/21 02:45:06;;;;;;;0.80;0.70;;;;;;;3.41;74.50;91986.97;2064686;69;20144;-77
2022/11/21 02:47:33;;;;;;;2.38;0.80;;;;;;;3.33;74.52;91986.34;2064515;69;20269;-77
2022/11/21 02:50:09;;;;;;;4.15;1.00;;;;;;;3.48;74.16;91974.22;2064460;69;20173;-76
2022/11/21 02:52:34;;;;;;;0.95;0.60;;;;;;;3.61;73.47;91976.59;2064627;69;20587;-76
2022/11/21 02:55:00;;;;;;;0.80;0.70;;;;;;;3.53;73.84;91979.53;2064655;69;20196;-77
2022/11/21 02:57:25;;;;;;;0.77;0.70;;;;;;;3.55;74.29;91979.66;2063898;69;20148;-77
2022/11/21 02:59:51;;;;;;;2.70;0.90;;;;;;;3.59;73.88;91990.38;2064295;69;20161;-76
2022/11/21 03:02:17;;;;;;;1.00;0.80;;;;;;;3.67;73.39;91996.56;2064032;69;20176;-77
2022/11/21 03:04:44;;;;;;;2.08;0.80;;;;;;;3.69;72.86;91993.19;2060695;69;20148;-76
2022/11/21 03:07:10;;;;;;;3.08;0.90;;;;;;;3.45;74.62;91992.84;2063717;69;20137;-78
2022/11/21 03:09:37;;;;;;;0.77;0.73;;;;;;;3.51;74.57;91989.78;2063288;69;20164;-77
2022/11/21 03:12:09;;;;;;;2.47;0.98;;;;;;;3.67;73.91;91988.19;2064017;69;20572;-76
2022/11/21 03:14:35;;;;;;;;;;;;;;;3.66;74.02;91989.50;2064990;69;20232;-76
2022/11/21 03:17:02;;;;;;;2.15;1.50;;;;;;;3.68;73.89;91994.50;2064509;69;20049;-76
2022/11/21 03:19:28;;;;;;;5.50;3.00;;;;;;;3.64;73.73;91981.00;2064129;69;20603;-77
2022/11/21 03:21:54;;;;;;;4.72;3.17;;;;;;;3.55;74.59;91979.66;2064581;69;20140;-76
2022/11/21 03:24:19;;;;;;;5.38;2.88;;;;;;;3.58;74.91;91963.13;2064170;69;20161;-77
2022/11/21 03:26:46;;;;;;;3.20;1.90;;;;;;;3.53;74.61;91973.25;2064103;69;20161;-77
2022/11/21 03:29:12;;;;;;;2.72;1.58;;;;;;;3.43;74.50;91961.34;2064590;69;20157;-77
2022/11/21 03:31:37;;;;;;;2.08;1.48;;;;;;;3.60;73.56;91969.56;2064515;69;20153;-78
2022/11/21 03:34:03;;;;;;;1.63;1.00;;;;;;;3.67;73.04;91960.38;2063386;69;20649;-77
2022/11/21 03:36:30;;;;;;;1.25;0.98;;;;;;;3.73;73.17;91962.84;2063996;69;20168;-77
2022/11/21 03:38:56;;;;;;;1.55;1.00;;;;;;;3.76;72.38;91956.84;2064491;69;20180;-77
2022/11/21 03:41:28;;;;;;;2.00;0.95;;;;;;;3.78;72.51;91929.16;2064454;69;20207;-77
2022/11/21 03:44:02;;;;;;;1.67;1.10;;;;;;;3.77;72.26;91938.09;2064656;69;20133;-77
2022/11/21 03:46:31;;;;;;;1.52;1.00;;;;;;;3.79;72.63;91925.03;2064722;69;20243;-75
2022/11/21 03:48:57;;;;;;;1.63;0.98;;;;;;;3.70;72.37;91914.63;2069211;69;20163;-74
2022/11/21 03:51:23;;;;;;;1.10;0.90;;;;;;;3.55;73.48;91910.09;2070968;69;20189;-75
2022/11/21 03:53:49;;;;;;;1.08;0.85;;;;;;;3.56;73.49;91908.78;2070298;69;20141;-75
2022/11/21 03:56:15;;;;;;;1.55;0.80;;;;;;;3.59;73.05;91912.44;2064922;69;20129;-76
2022/11/21 03:58:41;;;;;;;1.15;0.90;;;;;;;3.51;72.88;91915.38;2065032;69;20160;-74
2022/11/21 04:01:07;;;;;;;1.83;1.10;;;;;;;3.61;71.34;91923.72;2064406;69;20192;-74
2022/11/21 04:03:33;;;;;;;2.33;1.15;;;;;;;3.67;70.70;91915.84;2064495;69;20148;-74
2022/11/21 04:05:59;;;;;;;1.67;1.02;;;;;;;3.69;71.04;91907.63;2063957;69;20237;-76
2022/11/21 04:08:24;;;;;;;2.05;0.90;;;;;;;3.53;71.74;91900.88;2064577;69;20232;-76
2022/11/21 04:10:52;;;;;;;1.98;1.10;;;;;;;3.52;71.05;91914.03;2064596;69;20420;-76
2022/11/21 04:13:19;;;;;;;3.05;1.33;;;;;;;3.71;70.19;91930.03;2064656;69;20570;-75
2022/11/21 04:15:46;;;;;;;2.33;1.10;;;;;;;3.73;70.73;91930.19;2064557;69;20184;-75
2022/11/21 04:18:12;;;;;;;1.90;1.00;;;;;;;3.67;72.01;91913.03;2064333;69;20333;-75
2022/11/21 04:20:38;;;;;;;2.03;1.02;;;;;;;3.75;71.61;91921.22;2064446;69;20349;-75
2022/11/21 04:23:05;;;;;;;3.50;1.23;;;;;;;3.80;71.46;91923.00;2064033;69;20144;-76
2022/11/21 04:25:31;;;;;;;2.13;1.55;;;;;;;3.62;71.96;91936.34;2067833;69;20164;-76
2022/11/21 04:28:01;;;;;;;4.20;1.67;;;;;;;3.60;71.35;91929.88;2071680;69;20584;-76
2022/11/21 04:30:28;;;;;;;2.22;1.60;;;;;;;3.77;71.45;91924.19;2071032;69;20226;-76
2022/11/21 04:32:55;;;;;;;3.78;2.30;;;;;;;3.86;70.81;91908.81;2071371;69;20618;-76
2022/11/21 04:35:22;;;;;;;3.45;1.88;;;;;;;3.89;71.07;91915.97;2071553;69;20625;-75
2022/11/21 04:37:48;;;;;;;2.78;1.50;;;;;;;3.89;70.74;91913.19;2071565;69;20140;-76
2022/11/21 04:40:15;;;;;;;2.10;1.30;;;;;;;3.89;71.41;91896.47;2071578;69;20638;-75
2022/11/21 04:42:44;;;;;;;2.03;1.20;;;;;;;3.95;71.20;91899.72;2071434;69;20210;-76
2022/11/21 04:45:11;;;;;;;1.83;1.40;;;;;;;3.73;71.45;91874.50;2067336;69;20168;-76
2022/11/21 04:47:41;;;;;;;5.85;3.30;;;;;;;3.78;71.69;91867.19;2071164;69;20160;-76
2022/11/21 04:50:08;;;;;;;5.10;2.90;;;;;;;3.85;71.95;91857.94;2071477;69;20243;-76
2022/11/21 04:52:36;;;;;;;2.95;1.40;;;;;;;3.94;71.90;91862.78;2071437;69;20151;-76
2022/11/21 04:55:02;;;;;;;2.10;1.20;;;;;;;3.91;71.02;91858.38;2065353;69;20155;-76
2022/11/21 04:57:28;;;;;;;2.95;1.00;;;;;;;3.87;72.29;91844.16;2071587;69;20202;-76
2022/11/21 04:59:54;;;;;;;1.45;1.10;;;;;;;3.96;72.35;91848.97;2071599;69;20160;-76
2022/11/21 05:02:20;;;;;;;1.83;1.00;;;;;;;3.95;71.56;91849.59;2071133;69;20140;-77
2022/11/21 05:04:45;;;;;;;1.58;0.90;;;;;;;3.77;72.58;91840.66;2071657;69;20224;-77
2022/11/21 05:07:11;;;;;;;1.13;0.73;;;;;;;4.00;71.21;91843.69;2071562;69;20148;-77
2022/11/21 05:09:36;;;;;;;3.17;1.98;;;;;;;3.95;71.14;91849.59;2065253;69;20216;-77
2022/11/21 05:14:47;;;;;;;6.97;4.10;;;;;;;3.76;72.80;91853.84;2071412;69;20172;-77
2022/11/21 05:17:12;;;;;;;8.35;3.40;;;;;;;3.81;71.68;91854.88;2071439;69;20213;-77
2022/11/21 05:19:38;;;;;;;6.38;3.53;;;;;;;3.64;72.29;91844.63;2071720;69;20227;-77
2022/11/21 05:22:03;;;;;;;7.90;4.45;;;;;;;3.73;72.12;91846.66;2071485;69;20172;-77
2022/11/21 05:24:30;;;;;;;9.50;4.70;;;;;;;3.78;72.20;91856.78;2071390;69;20214;-77
2022/11/21 05:26:55;;;;;;;6.00;4.25;;;;;;;3.81;72.52;91860.44;2071742;69;20133;-77
2022/11/21 05:29:21;;;;;;;7.43;3.67;;;;;;;3.85;72.43;91857.94;2071446;69;20136;-77
2022/11/21 05:31:46;;;;;;;4.00;2.47;;;;;;;3.88;71.97;91853.97;2071346;69;20168;-77
2022/11/21 05:34:12;;;;;;;3.33;2.10;;;;;;;3.97;71.62;91861.59;2071509;69;20175;-77
2022/11/21 05:36:38;;;;;;;5.35;2.88;;;;;;;3.87;71.92;91846.94;2071504;69;20144;-78
2022/11/21 05:39:04;;;;;;;9.18;3.80;;;;;;;3.88;71.67;91844.91;2071448;69;20178;-77
2022/11/21 05:41:30;;;;;;;5.22;3.50;;;;;;;3.98;71.43;91837.97;2071476;69;20544;-77
2022/11/21 05:43:55;;;;;;;5.25;2.42;;;;;;;3.97;71.87;91833.00;2071511;69;20206;-77
2022/11/21 05:46:23;;;;;;;11.20;6.60;;;;;;;3.62;72.36;91827.03;2068095;69;20144;-78
2022/11/21 05:48:51;;;;;;;9.85;4.97;;;;;;;3.67;72.94;91837.16;2071472;69;20153;-77
2022/11/21 05:51:17;;;;;;;10.23;5.30;;;;;;;3.93;71.95;91844.59;2071519;69;20159;-77
2022/11/21 05:53:45;;;;;;;7.40;5.30;;;;;;;3.97;71.85;91844.16;2071459;69;20160;-77
2022/11/21 05:56:12;;;;;;;7.90;4.88;;;;;;;4.05;71.25;91847.50;2068129;69;20254;-78
2022/11/21 05:58:39;;;;;;;6.07;3.50;;;;;;;3.99;72.74;91847.81;2071438;69;20169;-78
2022/11/21 06:01:06;;;;;;;4.57;2.97;;;;;;;4.04;71.66;91844.00;2068152;69;20152;-77
2022/11/21 06:03:34;;;;;;;3.38;2.30;;;;;;;3.80;72.04;91854.16;2071482;69;20176;-77
2022/11/21 06:06:07;;;;;;;6.90;2.55;;;;;;;3.90;72.09;91853.41;2071384;69;20148;-77
2022/11/21 06:08:35;;;;;;;5.22;2.63;;;;;;;4.04;71.66;91855.13;2071406;69;20238;-77
2022/11/21 06:11:01;;;;;;;7.32;2.70;;;;;;;3.85;72.03;91849.59;2071349;69;20611;-77
2022/11/21 06:13:27;;;;;;;3.05;2.30;;;;;;;4.05;71.95;91858.66;2071341;69;20164;-77
2022/11/21 06:16:02;;;;;;;5.63;2.60;;;;;;;3.89;72.13;91863.06;2071328;69;20468;-77
2022/11/21 06:18:30;;;;;;;5.97;3.20;;;;;;;4.07;71.20;91864.34;2071412;69;20282;-77
2022/11/21 06:21:04;;;;;;;12.88;4.95;;;;;;;4.02;71.61;91863.34;2071443;69;20181;-77
2022/11/21 06:23:30;;;;;;;8.30;4.13;;;;;;;4.05;71.55;91864.22;2071359;69;20247;-77
2022/11/21 06:25:57;;;;;;;9.40;3.80;;;;;;;4.16;71.42;91865.66;2071188;69;20155;-77
2022/11/21 06:28:24;;;;;;;7.88;3.15;;;;;;;4.14;71.64;91882.25;2071474;69;20704;-77
2022/11/21 06:30:50;;;;;;;4.15;2.58;;;;;;;4.15;71.98;91876.06;2071449;69;20124;-77
2022/11/21 06:33:17;;;;;;;4.13;2.90;;;;;;;4.11;72.36;91881.34;2071410;69;20136;-77
2022/11/21 06:35:43;;;;;;;7.68;3.72;;;;;;;4.11;71.22;91873.00;2071509;69;20147;-77
2022/11/21 06:38:11;;;;;;;12.55;6.72;;;;;;;4.13;72.64;91878.72;2071445;69;20149;-77
2022/11/21 06:40:37;;;;;;;51.33;24.75;;;;;;;3.89;72.57;91866.56;2071429;69;20358;-77
2022/11/21 06:43:02;;;;;;;5.55;3.22;;;;;;;3.66;73.25;91849.59;2071443;69;20500;-77
2022/11/21 06:45:28;;;;;;;9.00;4.32;;;;;;;3.74;73.39;91855.75;2071561;69;20148;-77
2022/11/21 06:47:53;;;;;;;7.72;4.93;;;;;;;3.99;72.54;91855.44;2071211;69;20239;-77
2022/11/21 06:50:19;;;;;;;8.15;4.07;;;;;;;4.12;72.03;91860.53;2071311;69;20600;-77
2022/11/21 06:52:46;;;;;;;11.65;6.03;;;;;;;4.16;72.06;91866.38;2071323;69;20151;-77
2022/11/21 06:55:13;;;;;;;6.55;4.35;;;;;;;4.24;71.72;91869.75;2071381;69;20136;-77
2022/11/21 06:57:38;;;;;;;4.93;3.25;;;;;;;4.16;72.58;91868.44;2071362;69;20148;-77
2022/11/21 07:00:05;;;;;;;7.05;2.50;;;;;;;4.06;72.78;91899.81;2071345;69;20170;-77
2022/11/21 07:02:31;;;;;;;3.78;2.10;;;;;;;4.20;72.91;91907.72;2071144;69;20214;-78
2022/11/21 07:04:57;;;;;;;3.75;2.10;;;;;;;4.23;73.20;91904.50;2071479;69;20180;-79
2022/11/21 07:07:23;;;;;;;4.85;2.42;;;;;;;4.17;72.42;91917.25;2071389;69;20136;-79
2022/11/21 07:09:48;;;;;;;4.03;2.50;;;;;;;4.03;72.79;91926.09;2071323;69;20590;-79
2022/11/21 07:14:58;;;;;;;21.33;8.80;;;;;;;4.05;73.59;91922.72;2071519;69;20182;-78
2022/11/21 07:17:23;;;;;;;18.27;8.82;;;;;;;4.22;73.17;91916.97;2071226;69;20145;-78
2022/11/21 07:19:49;;;;;;;17.70;8.55;;;;;;;4.24;73.47;91917.09;2071589;69;20286;-77
2022/11/21 07:22:14;;;;;;;18.25;8.93;;;;;;;4.32;73.34;91900.25;2071441;69;20144;-77
2022/11/21 07:24:40;;;;;;;17.25;8.57;;;;;;;4.33;73.18;91891.28;2071253;69;20568;-77
2022/11/21 07:27:07;;;;;;;16.63;9.13;;;;;;;4.39;72.96;91890.97;2071135;69;20160;-77
2022/11/21 07:29:32;;;;;;;15.60;8.10;;;;;;;4.54;72.40;91890.66;2065166;69;20153;-77
2022/11/21 07:31:59;;;;;;;14.48;8.10;;;;;;;4.53;72.46;91900.31;2065016;69;20206;-77
2022/11/21 07:34:24;;;;;;;10.98;5.47;;;;;;;4.42;72.88;91900.94;2071275;69;20179;-77
2022/11/21 07:36:50;;;;;;;10.95;6.30;;;;;;;4.55;71.48;91896.94;2071279;69;20180;-77
2022/11/21 07:39:15;;;;;;;11.00;6.22;;;;;;;4.61;71.65;91916.16;2071895;69;20608;-78
2022/11/21 07:41:41;;;;;;;14.25;7.72;;;;;;;4.66;71.94;91929.78;2072057;69;20453;-75
2022/11/21 07:44:07;;;;;;;10.32;5.90;;;;;;;4.67;71.55;91938.88;2071655;69;20163;-77
2022/11/21 07:46:32;;;;;;;12.02;7.55;;;;;;;4.36;72.39;91938.81;2071607;69;20573;-78
2022/11/21 07:48:58;;;;;;;10.35;6.57;;;;;;;4.13;72.46;91942.78;2068398;69;20457;-77
2022/11/21 07:51:23;;;;;;;9.13;5.75;;;;;;;4.05;73.19;91925.50;2071722;69;20148;-76
2022/11/21 07:53:50;;;;;;;11.70;4.68;;;;;;;3.99;73.57;91919.50;2071918;69;20548;-78
2022/11/21 07:56:16;;;;;;;8.05;4.65;;;;;;;3.87;73.53;91913.78;2071763;69;20139;-77
2022/11/21 07:58:42;;;;;;;6.55;3.95;;;;;;;3.99;73.53;91913.94;2071897;69;20143;-77
2022/11/21 08:01:07;;;;;;;7.78;3.72;;;;;;;4.27;72.19;91895.72;2071760;69;20156;-80
2022/11/21 08:03:33;;;;;;;6.07;3.70;;;;;;;4.49;72.20;91893.72;2071753;69;20136;-77
2022/11/21 08:06:03;;;;;;;6.80;3.45;;;;;;;4.61;72.04;91883.44;2071849;69;20184;-77
2022/11/21 08:08:29;;;;;;;5.35;3.50;;;;;;;4.68;71.33;91876.22;2068432;69;20210;-77
2022/11/21 08:10:55;;;;;;;5.45;3.42;;;;;;;4.70;71.17;91885.44;2071760;69;20536;-76
2022/11/21 08:13:21;;;;;;;5.68;3.10;;;;;;;4.71;70.88;91886.19;2068316;69;20148;-76
2022/11/21 08:15:47;;;;;;;7.75;3.15;;;;;;;4.76;71.11;91893.50;2071537;69;20136;-78
2022/11/21 08:18:17;;;;;;;8.88;5.45;;;;;;;4.94;70.68;91894.00;2071644;69;20145;-77
2022/11/21 08:20:43;;;;;;;10.98;5.47;;;;;;;5.09;71.10;91899.25;2071691;69;20147;-76
2022/11/21 08:23:09;;;;;;;5.65;3.60;;;;;;;5.10;70.95;91901.44;2071608;69;20156;-77
2022/11/21 08:25:39;;;;;;;6.43;3.65;;;;;;;5.01;70.36;91895.91;2071613;69;20225;-78
2022/11/21 08:28:06;;;;;;;6.38;3.00;;;;;;;4.92;70.36;91896.66;2071754;69;20241;-77
2022/11/21 08:30:32;;;;;;;4.30;2.65;;;;;;;4.54;70.84;91893.44;2071664;69;20329;-77
2022/11/21 08:32:58;;;;;;;4.47;2.42;;;;;;;4.71;69.69;91886.91;2071635;69;20227;-77
2022/11/21 08:35:24;;;;;;;4.38;2.95;;;;;;;4.75;69.43;91887.19;2071550;69;20239;-76
2022/11/21 08:37:58;;;;;;;9.65;2.45;;;;;;;4.81;70.04;91873.69;2068225;69;20136;-77
2022/11/21 08:40:25;;;;;;;5.20;2.40;;;;;;;5.03;69.51;91884.88;2071744;69;20227;-76
2022/11/21 08:43:02;;;;;;;4.90;2.63;;;;;;;4.73;68.53;91886.34;2071727;69;20541;-76
2022/11/21 08:45:28;;;;;;;6.30;2.97;;;;;;;4.85;69.20;91878.78;2071737;69;20174;-75
2022/11/21 08:47:54;;;;;;;8.77;5.60;;;;;;;5.12;69.18;91878.50;2071577;69;20477;-75
2022/11/21 08:50:20;;;;;;;6.07;3.33;;;;;;;5.26;67.88;91875.94;2068202;69;20203;-74
2022/11/21 08:52:45;;;;;;;3.28;2.25;;;;;;;5.56;68.11;91882.81;2074705;69;20191;-75
2022/11/21 08:55:11;;;;;;;3.92;2.53;;;;;;;5.90;67.58;91887.09;2079539;69;20105;-74
2022/11/21 08:57:38;;;;;;;4.38;2.17;;;;;;;5.64;65.84;91883.34;2080152;69;20254;-76
2022/11/21 09:00:07;;;;;;;6.68;2.38;;;;;;;5.76;66.09;91858.97;2075164;69;20622;-77
2022/11/21 09:02:34;;;;;;;2.63;1.70;;;;;;;5.32;65.30;91865.19;2072945;69;20180;-79
2022/11/21 09:04:59;;;;;;;4.55;1.67;;;;;;;5.60;64.80;91857.94;2072531;69;20152;-78
2022/11/21 09:07:25;;;;;;;3.95;1.83;;;;;;;5.74;64.01;91853.28;2071944;69;20120;-79
2022/11/21 09:09:50;;;;;;;2.67;1.50;;;;;;;5.69;63.46;91864.78;2071942;69;20576;-78
2022/11/21 09:12:16;;;;;;;7.60;4.25;;;;;;;5.60;64.90;91860.72;2068396;69;20144;-79
2022/11/21 09:20:10;;;;;;;17.58;6.90;;;;;;;6.57;67.50;91896.22;2071753;69;20140;-76
2022/11/21 09:22:36;;;;;;;9.27;4.00;;;;;;;6.45;64.86;91878.69;2071541;69;20141;-76
2022/11/21 09:25:01;;;;;;;10.30;4.88;;;;;;;6.40;64.09;91857.41;2071481;69;20148;-76
2022/11/21 09:27:28;;;;;;;7.18;2.67;;;;;;;5.88;64.20;91841.56;2071603;69;20490;-76
2022/11/21 09:29:54;;;;;;;5.60;3.00;;;;;;;5.94;64.13;91841.94;2068308;69;20141;-76
2022/11/21 09:32:19;;;;;;;4.85;2.72;;;;;;;5.92;64.47;91845.34;2071508;69;20260;-78
2022/11/21 09:34:45;;;;;;;5.03;2.80;;;;;;;6.16;63.13;91846.16;2071541;69;20136;-78
2022/11/21 09:37:12;;;;;;;4.15;2.45;;;;;;;6.29;62.76;91842.78;2071532;69;20148;-77
2022/11/21 09:39:38;;;;;;;3.20;1.70;;;;;;;6.54;62.40;91852.69;2071628;69;20164;-78
2022/11/21 09:42:03;;;;;;;2.95;2.25;;;;;;;6.92;63.27;91854.31;2068264;69;20214;-78
2022/11/21 09:45:01;;;;;;;6.70;4.45;;;;;;;6.68;62.06;91864.00;2071565;69;20144;-78
2022/11/21 09:47:49;;;;;;;6.55;3.80;;;;;;;6.66;62.12;91847.84;2071492;69;20498;-77
2022/11/21 09:50:15;;;;;;;7.85;3.85;;;;;;;6.93;62.12;91846.66;2071423;69;20248;-78
2022/11/21 09:52:45;;;;;;;6.03;3.42;;;;;;;7.26;61.63;91858.44;2071624;69;20168;-77
2022/11/21 09:55:23;;;;;;;4.80;3.22;;;;;;;7.18;59.37;91849.53;2071737;69;20140;-77
2022/11/21 09:57:50;;;;;;;6.93;2.90;;;;;;;7.22;59.67;91838.59;2071650;69;20220;-76
2022/11/21 10:00:20;;;;;;;5.68;3.20;;;;;;;7.21;59.26;91848.34;2068014;69;20584;-78
2022/11/21 10:02:47;;;;;;;5.40;3.33;;;;;;;6.99;59.22;91842.13;2071421;69;20465;-78
2022/11/21 10:05:14;;;;;;;3.67;2.30;;;;;;;7.76;58.32;91842.38;2071543;69;20140;-78
2022/11/21 10:07:41;;;;;;;6.80;4.10;;;;;;;7.43;59.01;91837.00;2071557;69;20175;-77
2022/11/21 10:10:46;;;;;;;7.55;3.90;;;;;;;6.71;61.06;91834.84;2068147;69;20148;-77
2022/11/21 10:13:30;;;;;;;9.05;6.05;;;;;;;7.18;61.04;91824.34;2071462;69;20136;-77
2022/11/21 10:16:40;;;;;;;8.00;4.82;;;;;;;7.94;60.40;91820.28;2071600;69;20236;-77
2022/11/21 10:19:44;;;;;;;24.23;11.05;;;;;;;8.69;59.76;91815.25;2054007;70;20177;-78
2022/11/21 10:22:21;;;;;;;21.42;10.82;;;;;;;8.52;57.29;91805.97;2053818;70;20196;-78
2022/11/21 10:24:50;;;;;;;13.23;6.65;;;;;;;8.15;56.94;91808.81;2053277;69;20138;-78
2022/11/21 10:27:36;;;;;;;8.60;4.63;;;;;;;8.44;55.75;91794.31;2047871;70;20170;-78
2022/11/21 10:30:04;;;;;;;17.98;11.50;;;;;;;8.97;55.32;91787.94;2050640;70;20262;-78
2022/11/21 10:32:53;;;;;;;13.65;7.88;;;;;;;9.20;54.72;91784.94;2050609;70;20139;-78
2022/11/21 10:35:29;;;;;;;9.77;4.80;;;;;;;8.57;56.18;91788.00;2050673;70;20297;-78
2022/11/21 10:38:02;;;;;;;9.77;4.90;;;;;;;8.85;57.93;91788.78;2050698;70;20226;-78
2022/11/21 10:40:49;;;;;;;6.18;3.45;;;;;;;9.68;57.74;91783.13;2050640;70;20212;-78
2022/11/21 10:46:06;;;;;;;6.15;4.28;;;;;;;10.85;53.61;91778.03;2050611;70;20165;-77
2022/11/21 10:48:31;;;;;;;8.85;4.60;;;;;;;9.60;55.91;91780.63;2050625;70;20578;-77
2022/11/21 10:51:09;;;;;;;6.32;3.90;;;;;;;11.70;52.10;91773.28;2050581;70;20166;-77
2022/11/21 10:56:25;;;;;;;13.70;5.53;;;;;;;15.02;46.02;91752.53;2064795;69;20132;-77
2022/11/21 10:58:52;;;;;;;8.60;5.03;;;;;;;13.92;44.79;91749.09;2064669;69;20141;-78
2022/11/21 11:01:25;;;;;;;6.22;4.10;;;;;;;12.67;47.82;91739.03;2064560;69;20267;-77
2022/11/21 11:04:14;;;;;;;4.45;3.20;;;;;;;15.88;44.92;91738.63;2064638;69;20527;-78
2022/11/21 11:06:45;;;;;;;5.90;3.58;;;;;;;16.51;41.75;91743.03;2063575;69;20145;-78
2022/11/21 11:09:31;;;;;;;6.07;4.20;;;;;;;14.86;42.39;91737.91;2064608;69;20578;-78
2022/11/21 11:13:32;;;;;;;6.75;4.00;;;;;;;18.12;39.10;91736.41;2064541;69;20214;-78
2022/11/21 11:15:50;;;;;;;4.45;3.60;;;;;;;20.57;35.93;91717.50;2064495;69;20153;-77
2022/11/21 11:18:21;;;;;;;16.13;11.30;;;;;;;19.96;35.63;91714.78;2064555;69;20160;-77
2022/11/21 11:20:47;;;;;;;15.75;9.25;;;;;;;18.61;37.00;91712.31;2064110;69;20161;-78
2022/11/21 11:23:18;;;;;;;9.55;5.88;;;;;;;17.90;36.12;91708.25;2064763;69;20595;-78
2022/11/21 11:25:47;;;;;;;6.22;3.88;;;;;;;20.49;34.65;91694.59;2068278;69;20188;-78
2022/11/21 11:28:14;;;;;;;7.03;3.95;;;;;;;21.57;32.32;91698.84;2071350;69;20214;-78
2022/11/21 11:30:40;;;;;;;5.28;3.72;;;;;;;20.22;32.83;91685.03;2071278;69;20239;-79
2022/11/21 11:33:27;;;;;;;9.25;6.43;;;;;;;15.20;39.29;91672.97;2071042;69;20250;-78
2022/11/21 11:35:55;;;;;;;8.85;4.57;;;;;;;14.59;40.53;91674.81;2067846;69;20293;-78
2022/11/21 11:38:25;;;;;;;6.78;3.88;;;;;;;14.64;40.15;91661.50;2071348;69;20255;-78
2022/11/21 11:40:52;;;;;;;6.15;3.85;;;;;;;13.80;41.83;91667.41;2071305;69;20151;-78
2022/11/21 11:50:14;;;;;;;6.60;3.53;;;;;;;11.28;47.17;91650.34;2071652;69;20156;-77
2022/11/21 11:52:51;;;;;;;5.90;3.95;;;;;;;10.75;48.68;91642.47;2071268;69;20144;-80
2022/11/21 11:55:25;;;;;;;8.10;5.10;;;;;;;9.85;50.84;91639.19;2071269;69;20251;-79
2022/11/21 11:57:53;;;;;;;9.35;6.00;;;;;;;10.21;49.98;91633.75;2068055;69;20160;-79
2022/11/21 12:00:46;;;;;;;6.90;4.60;;;;;;;10.15;50.43;91625.06;2071493;69;20487;-76
2022/11/21 12:03:45;;;;;;;5.40;3.70;;;;;;;9.43;51.79;91626.66;2063716;69;20148;-75
2022/11/21 12:06:20;;;;;;;6.82;3.42;;;;;;;9.41;52.02;91616.06;2071566;69;20155;-76
2022/11/21 12:09:16;;;;;;;5.63;3.35;;;;;;;9.10;53.24;91613.88;2071422;69;20224;-79
2022/11/21 12:12:22;;;;;;;6.32;2.92;;;;;;;9.12;53.05;91602.75;2071220;69;20156;-76